createdAt,value
2018-10-12T00:00:17.842Z,15.20
2018-10-12T00:02:46.451Z,15.10
2018-10-12T00:05:14.935Z,15.00
2018-10-12T00:07:43.726Z,14.80
2018-10-12T00:10:12.516Z,14.70
2018-10-12T00:12:41.566Z,14.70
2018-10-12T00:15:10.556Z,14.70
2018-10-12T00:17:39.090Z,14.60
2018-10-12T00:20:08.160Z,14.50
2018-10-12T00:22:36.648Z,14.60
2018-10-12T00:25:05.708Z,14.70
2018-10-12T00:27:34.227Z,14.60
2018-10-12T00:30:02.844Z,14.60
2018-10-12T00:32:31.429Z,14.50
2018-10-12T00:35:00.062Z,14.50
2018-10-12T00:37:28.764Z,14.60
2018-10-12T00:39:57.276Z,14.60
2018-10-12T00:42:25.830Z,14.50
2018-10-12T00:44:54.380Z,14.40
2018-10-12T00:47:22.959Z,14.30
2018-10-12T00:49:51.510Z,14.20
2018-10-12T00:52:20.013Z,14.40
2018-10-12T00:54:48.545Z,14.20
2018-10-12T00:57:17.098Z,14.20
2018-10-12T00:59:45.673Z,14.00
2018-10-12T01:02:14.237Z,14.10
2018-10-12T01:04:42.758Z,13.90
2018-10-12T01:07:11.306Z,13.60
2018-10-12T01:09:39.906Z,13.60
2018-10-12T01:12:31.002Z,13.90
2018-10-12T01:15:00.045Z,13.60
2018-10-12T01:17:29.038Z,13.70
2018-10-12T01:19:58.113Z,13.40
2018-10-12T01:22:27.638Z,13.60
2018-10-12T01:24:57.181Z,13.70
2018-10-12T01:27:26.215Z,13.70
2018-10-12T01:29:55.016Z,13.50
2018-10-12T01:32:28.759Z,13.50
2018-10-12T01:34:57.271Z,13.40
2018-10-12T01:37:25.938Z,13.50
2018-10-12T01:39:54.491Z,13.50
2018-10-12T01:42:23.016Z,13.40
2018-10-12T01:44:51.561Z,13.50
2018-10-12T01:47:20.113Z,13.20
2018-10-12T01:49:48.698Z,13.20
2018-10-12T01:52:17.305Z,13.20
2018-10-12T01:54:45.782Z,13.20
2018-10-12T01:57:14.381Z,13.20
2018-10-12T01:59:42.957Z,13.10
2018-10-12T02:02:11.557Z,13.10
2018-10-12T02:04:40.129Z,13.10
2018-10-12T02:07:08.759Z,12.80
2018-10-12T02:09:37.349Z,12.70
2018-10-12T02:12:05.968Z,13.00
2018-10-12T02:14:34.505Z,13.10
2018-10-12T02:17:03.068Z,13.10
2018-10-12T02:19:31.606Z,12.80
2018-10-12T02:22:00.104Z,12.80
2018-10-12T02:24:28.657Z,12.60
2018-10-12T02:26:57.239Z,12.40
2018-10-12T02:29:25.807Z,12.50
2018-10-12T02:31:54.309Z,12.30
2018-10-12T02:34:22.814Z,12.50
2018-10-12T02:36:51.394Z,12.50
2018-10-12T02:39:20.014Z,12.60
2018-10-12T02:41:48.620Z,12.40
2018-10-12T02:44:17.190Z,12.30
2018-10-12T02:46:45.693Z,12.30
2018-10-12T02:49:14.219Z,12.20
2018-10-12T02:51:42.739Z,12.30
2018-10-12T02:54:14.715Z,12.20
2018-10-12T02:56:43.257Z,12.30
2018-10-12T02:59:11.821Z,12.30
2018-10-12T03:01:40.375Z,12.50
2018-10-12T03:04:08.936Z,12.30
2018-10-12T03:06:38.526Z,12.30
2018-10-12T03:09:13.797Z,12.30
2018-10-12T03:11:42.389Z,12.20
2018-10-12T03:14:10.992Z,12.30
2018-10-12T03:16:39.526Z,12.20
2018-10-12T03:19:08.134Z,12.20
2018-10-12T03:21:36.672Z,12.10
2018-10-12T03:24:05.229Z,12.00
2018-10-12T03:26:33.750Z,12.00
2018-10-12T03:29:02.303Z,11.90
2018-10-12T03:31:30.925Z,11.90
2018-10-12T03:33:59.629Z,11.90
2018-10-12T03:36:28.567Z,12.10
2018-10-12T03:38:57.172Z,12.20
2018-10-12T03:41:25.693Z,12.20
2018-10-12T03:43:54.248Z,12.30
2018-10-12T03:46:22.835Z,12.30
2018-10-12T03:48:51.461Z,12.30
2018-10-12T03:51:20.076Z,12.30
2018-10-12T03:53:48.592Z,12.30
2018-10-12T03:56:17.164Z,12.20
2018-10-12T03:58:45.743Z,12.20
2018-10-12T04:01:14.325Z,12.00
2018-10-12T04:03:42.843Z,12.20
2018-10-12T04:06:11.383Z,12.20
2018-10-12T04:08:39.921Z,12.20
2018-10-12T04:11:08.477Z,12.20
2018-10-12T04:13:37.045Z,12.00
2018-10-12T04:16:05.581Z,12.00
2018-10-12T04:18:34.123Z,12.00
2018-10-12T04:21:03.081Z,12.00
2018-10-12T04:23:32.557Z,12.20
2018-10-12T04:26:01.159Z,12.00
2018-10-12T04:28:29.943Z,12.00
2018-10-12T04:30:58.474Z,11.80
2018-10-12T04:33:27.283Z,11.90
2018-10-12T04:35:55.855Z,11.90
2018-10-12T04:38:24.465Z,11.90
2018-10-12T04:41:04.891Z,11.80
2018-10-12T04:43:33.789Z,11.80
2018-10-12T04:46:04.210Z,11.80
2018-10-12T04:48:33.244Z,11.80
2018-10-12T04:51:02.771Z,11.70
2018-10-12T04:53:31.385Z,11.70
2018-10-12T04:55:59.944Z,11.70
2018-10-12T04:58:28.539Z,11.70
2018-10-12T05:00:57.125Z,11.70
2018-10-12T05:03:25.796Z,11.80
2018-10-12T05:05:54.380Z,11.90
2018-10-12T05:08:22.913Z,11.60
2018-10-12T05:10:51.481Z,11.70
2018-10-12T05:13:20.083Z,11.80
2018-10-12T05:15:48.635Z,11.70
2018-10-12T05:18:17.190Z,11.70
2018-10-12T05:20:45.715Z,11.80
2018-10-12T05:23:14.262Z,11.90
2018-10-12T05:25:43.170Z,11.70
2018-10-12T05:28:11.769Z,11.70
2018-10-12T05:30:40.344Z,11.70
2018-10-12T05:33:08.890Z,11.70
2018-10-12T05:35:37.459Z,11.60
2018-10-12T05:38:06.118Z,11.60
2018-10-12T05:40:34.694Z,11.40
2018-10-12T05:43:03.354Z,11.50
2018-10-12T05:45:31.988Z,11.60
2018-10-12T05:48:11.704Z,11.70
2018-10-12T05:50:40.423Z,11.70
2018-10-12T05:53:09.039Z,11.60
2018-10-12T05:55:37.779Z,11.50
2018-10-12T05:58:06.645Z,11.40
2018-10-12T06:00:35.266Z,11.40
2018-10-12T06:03:03.877Z,11.50
2018-10-12T06:05:32.437Z,11.60
2018-10-12T06:08:01.005Z,11.60
2018-10-12T06:10:29.577Z,11.60
2018-10-12T06:12:58.183Z,11.60
2018-10-12T06:15:26.784Z,11.70
2018-10-12T06:17:55.557Z,11.70
2018-10-12T06:20:24.134Z,11.70
2018-10-12T06:22:52.675Z,11.80
2018-10-12T06:25:21.243Z,11.70
2018-10-12T06:27:49.872Z,11.70
2018-10-12T06:30:18.435Z,11.90
2018-10-12T06:32:47.088Z,11.80
2018-10-12T06:35:15.658Z,12.00
2018-10-12T06:37:44.289Z,12.00
2018-10-12T06:40:12.845Z,11.90
2018-10-12T06:42:41.500Z,11.90
2018-10-12T06:45:13.876Z,11.80
2018-10-12T06:47:42.349Z,11.90
2018-10-12T06:50:10.890Z,12.00
2018-10-12T06:52:39.409Z,12.10
2018-10-12T06:55:08.510Z,12.30
2018-10-12T06:57:37.037Z,12.40
2018-10-12T07:00:08.883Z,12.40
2018-10-12T07:02:37.467Z,12.50
2018-10-12T07:05:06.105Z,12.60
2018-10-12T07:07:34.798Z,12.70
2018-10-12T07:10:03.442Z,12.70
2018-10-12T07:12:31.969Z,12.80
2018-10-12T07:15:00.523Z,12.80
2018-10-12T07:17:29.071Z,13.00
2018-10-12T07:19:57.634Z,13.10
2018-10-12T07:22:26.194Z,13.30
2018-10-12T07:24:54.788Z,13.40
2018-10-12T07:27:23.335Z,13.50
2018-10-12T07:29:51.957Z,13.50
2018-10-12T07:32:20.514Z,13.60
2018-10-12T07:34:48.992Z,13.70
2018-10-12T07:37:17.645Z,13.80
2018-10-12T07:39:46.324Z,14.00
2018-10-12T07:42:14.905Z,14.00
2018-10-12T07:44:43.499Z,14.10
2018-10-12T07:47:12.017Z,14.30
2018-10-12T07:49:40.573Z,14.30
2018-10-12T07:52:09.100Z,14.50
2018-10-12T07:54:37.810Z,14.60
2018-10-12T07:57:11.676Z,14.90
2018-10-12T07:59:41.239Z,15.30
2018-10-12T08:02:10.667Z,15.50
2018-10-12T08:04:40.095Z,15.70
2018-10-12T08:07:08.896Z,15.70
2018-10-12T08:09:38.105Z,15.80
2018-10-12T08:12:06.953Z,16.00
2018-10-12T08:14:35.523Z,16.30
2018-10-12T08:17:04.132Z,16.70
2018-10-12T08:19:32.759Z,16.90
2018-10-12T08:22:01.311Z,17.10
2018-10-12T08:24:29.864Z,17.30
2018-10-12T08:26:58.525Z,17.50
2018-10-12T08:29:28.073Z,17.80
2018-10-12T08:31:56.960Z,17.90
2018-10-12T08:34:25.506Z,17.90
2018-10-12T08:36:54.054Z,17.90
2018-10-12T08:39:22.566Z,18.10
2018-10-12T08:41:51.189Z,18.40
2018-10-12T08:44:19.691Z,18.20
2018-10-12T08:46:48.357Z,18.50
2018-10-12T08:49:16.920Z,18.70
2018-10-12T08:51:45.424Z,19.10
2018-10-12T08:54:14.378Z,19.20
2018-10-12T08:56:42.843Z,19.00
2018-10-12T08:59:11.411Z,19.20
2018-10-12T09:01:39.909Z,19.20
2018-10-12T09:04:08.438Z,19.20
2018-10-12T09:06:36.967Z,19.00
2018-10-12T09:09:12.228Z,19.30
2018-10-12T09:11:41.287Z,19.10
2018-10-12T09:14:10.214Z,19.50
2018-10-12T09:16:38.774Z,19.90
2018-10-12T09:19:07.315Z,20.10
2018-10-12T09:21:35.845Z,20.30
2018-10-12T09:24:04.426Z,20.40
2018-10-12T09:26:32.996Z,20.10
2018-10-12T09:29:01.515Z,20.00
2018-10-12T09:31:30.043Z,19.90
2018-10-12T09:33:58.600Z,20.20
2018-10-12T09:36:27.132Z,20.50
2018-10-12T09:38:55.611Z,20.60
2018-10-12T09:41:24.199Z,21.00
2018-10-12T09:43:52.766Z,21.50
2018-10-12T09:46:21.222Z,21.50
2018-10-12T09:48:49.766Z,21.90
2018-10-12T09:51:18.326Z,22.20
2018-10-12T09:53:46.862Z,22.00
2018-10-12T09:56:15.480Z,22.40
2018-10-12T09:58:44.008Z,22.70
2018-10-12T10:01:17.754Z,22.80
2018-10-12T10:03:51.676Z,23.00
2018-10-12T10:06:20.207Z,23.00
2018-10-12T10:08:48.816Z,23.00
2018-10-12T10:11:17.315Z,23.50
2018-10-12T10:13:45.854Z,23.30
2018-10-12T10:16:14.353Z,23.40
2018-10-12T10:18:42.872Z,23.50
2018-10-12T10:21:11.430Z,23.40
2018-10-12T10:23:39.968Z,23.10
2018-10-12T10:26:08.589Z,22.90
2018-10-12T10:28:37.097Z,22.60
2018-10-12T10:31:06.622Z,22.70
2018-10-12T10:33:35.239Z,22.70
2018-10-12T10:36:13.383Z,22.60
2018-10-12T10:38:41.947Z,22.70
2018-10-12T10:41:10.459Z,22.70
2018-10-12T10:43:39.004Z,22.90
2018-10-12T10:46:07.584Z,23.10
2018-10-12T10:48:36.130Z,23.80
2018-10-12T10:51:04.686Z,24.60
2018-10-12T10:53:33.276Z,24.00
2018-10-12T10:56:01.765Z,24.40
2018-10-12T10:58:30.309Z,24.50
2018-10-12T11:00:58.864Z,24.20
2018-10-12T11:03:27.318Z,24.40
2018-10-12T11:05:55.871Z,24.60
2018-10-12T11:08:24.368Z,24.50
2018-10-12T11:10:52.916Z,24.40
2018-10-12T11:13:21.502Z,24.40
2018-10-12T11:15:50.052Z,24.40
2018-10-12T11:18:18.645Z,24.40
2018-10-12T11:20:47.208Z,24.40
2018-10-12T11:23:15.768Z,25.00
2018-10-12T11:25:44.329Z,25.40
2018-10-12T11:28:12.857Z,25.10
2018-10-12T11:30:41.474Z,25.40
2018-10-12T11:33:10.015Z,25.50
2018-10-12T11:35:38.525Z,26.60
2018-10-12T11:38:07.052Z,26.60
2018-10-12T11:40:35.618Z,26.10
2018-10-12T11:43:15.239Z,26.50
2018-10-12T11:45:43.795Z,26.90
2018-10-12T11:48:12.353Z,26.00
2018-10-12T11:50:40.923Z,26.20
2018-10-12T11:53:09.498Z,26.80
2018-10-12T11:55:38.013Z,27.50
2018-10-12T11:58:06.879Z,27.20
2018-10-12T12:00:35.429Z,27.40
2018-10-12T12:03:04.057Z,27.10
2018-10-12T12:05:32.520Z,27.60
2018-10-12T12:08:01.034Z,28.00
2018-10-12T12:10:29.559Z,28.10
2018-10-12T12:12:58.140Z,27.90
2018-10-12T12:15:26.727Z,27.50
2018-10-12T12:17:55.399Z,27.00
2018-10-12T12:20:23.967Z,27.40
2018-10-12T12:22:52.713Z,27.30
2018-10-12T12:25:21.254Z,27.30
2018-10-12T12:27:49.986Z,27.00
2018-10-12T12:30:18.599Z,26.90
2018-10-12T12:32:47.216Z,27.30
2018-10-12T12:35:16.079Z,27.20
2018-10-12T12:37:44.445Z,26.90
2018-10-12T12:40:13.029Z,26.70
2018-10-12T12:42:41.592Z,26.90
2018-10-12T12:45:12.654Z,27.40
2018-10-12T12:47:41.309Z,27.00
2018-10-12T12:50:09.729Z,26.90
2018-10-12T12:52:38.290Z,27.10
2018-10-12T12:55:06.931Z,27.00
2018-10-12T12:57:35.477Z,26.80
2018-10-12T13:00:09.451Z,27.00
2018-10-12T13:02:38.328Z,27.10
2018-10-12T13:05:06.938Z,27.40
2018-10-12T13:07:35.518Z,26.90
2018-10-12T13:10:04.124Z,27.20
2018-10-12T13:12:32.685Z,27.00
2018-10-12T13:15:01.192Z,27.40
2018-10-12T13:17:29.773Z,27.60
2018-10-12T13:19:58.360Z,27.70
2018-10-12T13:22:26.883Z,27.70
2018-10-12T13:24:55.426Z,27.50
2018-10-12T13:27:24.017Z,26.90
2018-10-12T13:29:52.625Z,26.90
2018-10-12T13:32:21.190Z,27.00
2018-10-12T13:34:49.752Z,27.10
2018-10-12T13:37:18.334Z,27.30
2018-10-12T13:39:46.852Z,27.50
2018-10-12T13:42:15.504Z,27.30
2018-10-12T13:44:44.062Z,27.20
2018-10-12T13:47:12.583Z,27.20
2018-10-12T13:49:41.146Z,27.30
2018-10-12T13:52:09.665Z,27.20
2018-10-12T13:54:38.260Z,27.20
2018-10-12T13:57:07.196Z,27.10
2018-10-12T13:59:35.785Z,26.80
2018-10-12T14:02:04.315Z,26.90
2018-10-12T14:04:32.842Z,26.80
2018-10-12T14:07:01.390Z,26.80
2018-10-12T14:09:29.993Z,26.80
2018-10-12T14:11:58.564Z,26.70
2018-10-12T14:14:27.194Z,26.70
2018-10-12T14:16:55.778Z,26.50
2018-10-12T14:19:24.507Z,26.50
2018-10-12T14:21:53.030Z,26.50
2018-10-12T14:24:21.572Z,26.30
2018-10-12T14:26:50.241Z,26.30
2018-10-12T14:29:18.957Z,26.20
2018-10-12T14:31:47.610Z,26.30
2018-10-12T14:34:16.326Z,26.20
2018-10-12T14:36:45.151Z,26.20
2018-10-12T14:39:13.701Z,26.30
2018-10-12T14:41:42.234Z,26.30
2018-10-12T14:44:10.949Z,26.30
2018-10-12T14:46:39.634Z,26.40
2018-10-12T14:49:08.256Z,26.40
2018-10-12T14:51:36.921Z,26.30
2018-10-12T14:54:11.831Z,26.20
2018-10-12T14:56:40.362Z,26.20
2018-10-12T14:59:09.029Z,26.00
2018-10-12T15:01:37.531Z,26.00
2018-10-12T15:04:06.230Z,26.00
2018-10-12T15:06:34.816Z,26.00
2018-10-12T15:09:06.648Z,26.00
2018-10-12T15:11:35.244Z,26.00
2018-10-12T15:14:03.845Z,25.80
2018-10-12T15:16:32.414Z,25.80
2018-10-12T15:19:00.992Z,25.70
2018-10-12T15:21:29.637Z,25.70
2018-10-12T15:23:58.071Z,25.70
2018-10-12T15:26:26.594Z,25.70
2018-10-12T15:28:55.165Z,25.60
2018-10-12T15:31:23.976Z,25.50
2018-10-12T15:33:52.518Z,25.50
2018-10-12T15:36:21.105Z,25.50
2018-10-12T15:38:49.681Z,25.50
2018-10-12T15:41:18.330Z,25.40
2018-10-12T15:43:46.903Z,25.40
2018-10-12T15:46:15.455Z,25.30
2018-10-12T15:48:44.034Z,25.30
2018-10-12T15:51:12.695Z,25.20
2018-10-12T15:53:41.289Z,25.20
2018-10-12T15:56:10.001Z,25.10
2018-10-12T15:58:38.518Z,25.00
2018-10-12T16:01:07.070Z,24.80
2018-10-12T16:03:35.664Z,24.70
2018-10-12T16:06:04.300Z,24.60
2018-10-12T16:08:33.017Z,24.20
2018-10-12T16:11:01.666Z,24.00
2018-10-12T16:13:30.343Z,23.80
2018-10-12T16:15:58.943Z,23.80
2018-10-12T16:18:27.506Z,23.70
2018-10-12T16:20:56.541Z,23.50
2018-10-12T16:23:25.101Z,23.50
2018-10-12T16:26:05.947Z,23.40
2018-10-12T16:28:34.497Z,23.20
2018-10-12T16:31:03.087Z,23.20
2018-10-12T16:33:31.648Z,23.10
2018-10-12T16:36:00.332Z,22.90
2018-10-12T16:38:28.901Z,22.70
2018-10-12T16:40:57.475Z,22.40
2018-10-12T16:43:26.153Z,22.00
2018-10-12T16:45:54.627Z,21.70
2018-10-12T16:48:23.177Z,21.60
2018-10-12T16:50:51.723Z,21.50
2018-10-12T16:53:20.292Z,21.20
2018-10-12T16:55:48.855Z,21.10
2018-10-12T16:58:17.737Z,21.00
2018-10-12T17:00:46.253Z,20.90
2018-10-12T17:03:14.751Z,21.00
2018-10-12T17:05:43.435Z,21.00
2018-10-12T17:08:11.954Z,21.00
2018-10-12T17:10:40.533Z,20.90
2018-10-12T17:13:09.173Z,20.80
2018-10-12T17:15:38.037Z,20.80
2018-10-12T17:18:14.575Z,20.70
2018-10-12T17:20:43.110Z,20.50
2018-10-12T17:23:11.634Z,20.50
2018-10-12T17:25:40.212Z,20.50
2018-10-12T17:28:08.883Z,20.40
2018-10-12T17:30:37.964Z,20.30
2018-10-12T17:33:06.589Z,20.00
2018-10-12T17:35:35.185Z,19.70
2018-10-12T17:38:03.762Z,19.40
2018-10-12T17:40:32.405Z,19.20
2018-10-12T17:43:01.100Z,19.30
2018-10-12T17:45:29.677Z,19.20
2018-10-12T17:47:58.212Z,19.30
2018-10-12T17:50:26.818Z,19.30
2018-10-12T17:52:55.463Z,19.30
2018-10-12T17:55:24.068Z,19.40
2018-10-12T17:57:52.607Z,19.10
2018-10-12T18:00:21.167Z,18.80
2018-10-12T18:02:49.783Z,18.60
2018-10-12T18:05:18.424Z,18.30
2018-10-12T18:07:47.011Z,18.20
2018-10-12T18:10:15.812Z,18.20
2018-10-12T18:12:44.378Z,18.20
2018-10-12T18:15:13.505Z,18.20
2018-10-12T18:17:42.182Z,17.90
2018-10-12T18:20:11.572Z,17.90
2018-10-12T18:22:40.211Z,17.80
2018-10-12T18:25:09.008Z,17.90
2018-10-12T18:27:37.527Z,17.90
2018-10-12T18:30:06.326Z,17.70
2018-10-12T18:32:34.926Z,17.60
2018-10-12T18:35:03.618Z,17.60
2018-10-12T18:37:32.232Z,17.50
2018-10-12T18:40:00.768Z,17.20
2018-10-12T18:42:35.640Z,17.30
2018-10-12T18:45:08.700Z,17.30
2018-10-12T18:47:37.255Z,17.20
2018-10-12T18:50:06.318Z,17.10
2018-10-12T18:52:35.011Z,17.20
2018-10-12T18:55:03.665Z,17.30
2018-10-12T18:57:35.244Z,17.20
2018-10-12T19:00:09.682Z,17.10
2018-10-12T19:02:38.293Z,17.10
2018-10-12T19:05:07.013Z,17.00
2018-10-12T19:07:35.617Z,16.80
2018-10-12T19:10:04.271Z,16.70
2018-10-12T19:12:32.854Z,16.60
2018-10-12T19:15:02.139Z,16.60
2018-10-12T19:17:30.757Z,16.60
2018-10-12T19:19:59.312Z,16.70
2018-10-12T19:22:27.882Z,16.60
2018-10-12T19:24:56.533Z,16.50
2018-10-12T19:27:25.145Z,16.50
2018-10-12T19:29:54.342Z,16.50
2018-10-12T19:32:22.810Z,16.60
2018-10-12T19:34:51.410Z,16.60
2018-10-12T19:37:19.930Z,16.50
2018-10-12T19:39:48.569Z,16.40
2018-10-12T19:42:17.108Z,16.30
2018-10-12T19:44:45.702Z,16.30
2018-10-12T19:47:14.355Z,16.40
2018-10-12T19:49:42.928Z,16.60
2018-10-12T19:52:11.527Z,16.40
2018-10-12T19:54:40.035Z,16.30
2018-10-12T19:57:08.595Z,16.20
2018-10-12T19:59:37.174Z,16.10
2018-10-12T20:02:05.720Z,15.90
2018-10-12T20:04:34.191Z,15.80
2018-10-12T20:07:02.683Z,16.00
2018-10-12T20:09:31.259Z,15.90
2018-10-12T20:11:59.778Z,15.80
2018-10-12T20:14:28.366Z,15.70
2018-10-12T20:16:56.955Z,15.80
2018-10-12T20:19:25.536Z,15.80
2018-10-12T20:21:54.130Z,15.80
2018-10-12T20:24:22.891Z,15.70
2018-10-12T20:26:51.448Z,15.80
2018-10-12T20:29:19.962Z,15.90
2018-10-12T20:31:48.513Z,15.50
2018-10-12T20:34:17.087Z,15.40
2018-10-12T20:36:45.647Z,15.40
2018-10-12T20:39:14.240Z,15.50
2018-10-12T20:41:42.845Z,15.60
2018-10-12T20:44:11.392Z,15.50
2018-10-12T20:46:40.174Z,15.20
2018-10-12T20:49:08.890Z,15.50
2018-10-12T20:51:38.337Z,15.50
2018-10-12T20:54:11.946Z,15.60
2018-10-12T20:56:40.497Z,15.60
2018-10-12T20:59:09.076Z,15.60
2018-10-12T21:01:37.647Z,15.50
2018-10-12T21:04:06.299Z,15.20
2018-10-12T21:06:34.818Z,15.30
2018-10-12T21:09:11.998Z,15.30
2018-10-12T21:11:40.508Z,15.30
2018-10-12T21:14:09.031Z,15.30
2018-10-12T21:16:37.501Z,15.30
2018-10-12T21:19:06.163Z,15.30
2018-10-12T21:21:34.717Z,15.00
2018-10-12T21:24:03.389Z,15.00
2018-10-12T21:26:31.978Z,15.10
2018-10-12T21:29:00.656Z,15.30
2018-10-12T21:31:29.295Z,15.30
2018-10-12T21:33:58.025Z,15.40
2018-10-12T21:36:26.631Z,15.20
2018-10-12T21:38:55.177Z,15.00
2018-10-12T21:41:23.807Z,15.00
2018-10-12T21:43:52.666Z,15.00
2018-10-12T21:46:21.334Z,14.90
2018-10-12T21:48:49.907Z,14.80
2018-10-12T21:51:18.608Z,14.70
2018-10-12T21:53:47.144Z,14.90
2018-10-12T21:56:15.695Z,14.90
2018-10-12T21:58:44.180Z,14.70
2018-10-12T22:01:12.845Z,14.70
2018-10-12T22:03:41.378Z,14.80
2018-10-12T22:06:09.931Z,14.80
2018-10-12T22:08:43.803Z,14.90
2018-10-12T22:11:12.323Z,14.90
2018-10-12T22:13:40.880Z,14.70
2018-10-12T22:16:09.495Z,14.60
2018-10-12T22:18:38.102Z,14.50
2018-10-12T22:21:07.153Z,14.60
2018-10-12T22:23:36.328Z,14.60
2018-10-12T22:26:04.943Z,14.50
2018-10-12T22:28:33.731Z,14.40
2018-10-12T22:31:02.299Z,14.20
2018-10-12T22:33:30.877Z,14.30
2018-10-12T22:35:59.444Z,14.40
2018-10-12T22:38:28.033Z,14.30
2018-10-12T22:40:56.605Z,14.30
2018-10-12T22:43:25.396Z,14.40
2018-10-12T22:45:53.883Z,14.40
2018-10-12T22:48:22.404Z,14.40
2018-10-12T22:50:50.965Z,14.40
2018-10-12T22:53:19.465Z,14.30
2018-10-12T22:55:48.117Z,14.40
2018-10-12T22:58:16.654Z,14.20
2018-10-12T23:00:45.193Z,14.10
2018-10-12T23:03:13.658Z,13.90
2018-10-12T23:05:42.202Z,13.70
2018-10-12T23:08:10.724Z,13.90
2018-10-12T23:10:39.275Z,14.10
2018-10-12T23:13:07.857Z,14.00
2018-10-12T23:15:36.373Z,14.00
2018-10-12T23:18:11.483Z,14.10
2018-10-12T23:20:39.947Z,14.20
2018-10-12T23:23:08.578Z,14.00
2018-10-12T23:25:37.143Z,14.00
2018-10-12T23:28:05.690Z,14.00
2018-10-12T23:30:34.175Z,14.00
2018-10-12T23:33:13.831Z,13.80
2018-10-12T23:35:42.495Z,13.90
2018-10-12T23:38:10.983Z,13.80
2018-10-12T23:40:39.569Z,13.70
2018-10-12T23:43:08.156Z,13.90
2018-10-12T23:45:36.714Z,14.00
2018-10-12T23:48:05.276Z,14.00
2018-10-12T23:50:33.813Z,13.80
2018-10-12T23:53:02.440Z,13.80
2018-10-12T23:55:30.974Z,13.90
2018-10-12T23:57:59.552Z,13.60
